sensor_id;sensor_type;location;lat;lon;timestamp;P1;durP1;ratioP1;P2;durP2;ratioP2
4698;SDS011;33708;49.466;11.176;2023-01-13T00:01:10;9.73;;;0.93;;
4698;SDS011;33708;49.466;11.176;2023-01-13T00:03:40;7.63;;;1.30;;
4698;SDS011;33708;49.466;11.176;2023-01-13T00:06:06;7.53;;;0.90;;
4698;SDS011;33708;49.466;11.176;2023-01-13T00:08:32;9.07;;;1.13;;
4698;SDS011;33708;49.466;11.176;2023-01-13T00:10:58;12.60;;;1.03;;
4698;SDS011;33708;49.466;11.176;2023-01-13T00:13:23;6.90;;;0.90;;
4698;SDS011;33708;49.466;11.176;2023-01-13T00:15:58;7.60;;;1.13;;
4698;SDS011;33708;49.466;11.176;2023-01-13T00:18:28;6.50;;;0.80;;
4698;SDS011;33708;49.466;11.176;2023-01-13T00:20:58;6.93;;;1.00;;
4698;SDS011;33708;49.466;11.176;2023-01-13T00:23:25;10.17;;;1.20;;
4698;SDS011;33708;49.466;11.176;2023-01-13T00:25:54;12.27;;;1.10;;
4698;SDS011;33708;49.466;11.176;2023-01-13T00:28:21;7.37;;;1.03;;
4698;SDS011;33708;49.466;11.176;2023-01-13T00:30:46;9.03;;;1.30;;
4698;SDS011;33708;49.466;11.176;2023-01-13T00:33:12;8.13;;;1.00;;
4698;SDS011;33708;49.466;11.176;2023-01-13T00:35:37;7.70;;;0.97;;
4698;SDS011;33708;49.466;11.176;2023-01-13T00:38:03;8.30;;;1.23;;
4698;SDS011;33708;49.466;11.176;2023-01-13T00:40:28;7.83;;;1.13;;
4698;SDS011;33708;49.466;11.176;2023-01-13T00:42:54;12.93;;;1.30;;
4698;SDS011;33708;49.466;11.176;2023-01-13T00:45:38;8.03;;;1.10;;
4698;SDS011;33708;49.466;11.176;2023-01-13T00:48:04;7.53;;;0.93;;
4698;SDS011;33708;49.466;11.176;2023-01-13T00:50:29;9.00;;;1.17;;
4698;SDS011;33708;49.466;11.176;2023-01-13T00:52:57;8.87;;;1.00;;
4698;SDS011;33708;49.466;11.176;2023-01-13T00:55:24;8.10;;;1.20;;
4698;SDS011;33708;49.466;11.176;2023-01-13T00:57:50;9.03;;;1.13;;
4698;SDS011;33708;49.466;11.176;2023-01-13T01:00:15;8.40;;;1.27;;
4698;SDS011;33708;49.466;11.176;2023-01-13T01:02:41;7.67;;;1.00;;
4698;SDS011;33708;49.466;11.176;2023-01-13T01:05:07;8.73;;;1.23;;
4698;SDS011;33708;49.466;11.176;2023-01-13T01:07:33;6.73;;;0.83;;
4698;SDS011;33708;49.466;11.176;2023-01-13T01:09:59;8.40;;;1.00;;
4698;SDS011;33708;49.466;11.176;2023-01-13T01:12:25;9.43;;;1.27;;
4698;SDS011;33708;49.466;11.176;2023-01-13T01:14:50;7.93;;;0.77;;
4698;SDS011;33708;49.466;11.176;2023-01-13T01:17:16;8.47;;;1.10;;
4698;SDS011;33708;49.466;11.176;2023-01-13T01:19:41;8.17;;;1.00;;
4698;SDS011;33708;49.466;11.176;2023-01-13T01:22:07;9.33;;;0.83;;
4698;SDS011;33708;49.466;11.176;2023-01-13T01:24:33;9.40;;;0.90;;
4698;SDS011;33708;49.466;11.176;2023-01-13T01:26:58;9.20;;;1.00;;
4698;SDS011;33708;49.466;11.176;2023-01-13T01:29:24;8.23;;;1.47;;
4698;SDS011;33708;49.466;11.176;2023-01-13T01:31:49;8.87;;;1.20;;
4698;SDS011;33708;49.466;11.176;2023-01-13T01:34:15;8.90;;;0.90;;
4698;SDS011;33708;49.466;11.176;2023-01-13T01:36:41;12.47;;;1.00;;
4698;SDS011;33708;49.466;11.176;2023-01-13T01:39:06;7.10;;;0.90;;
4698;SDS011;33708;49.466;11.176;2023-01-13T01:41:33;8.63;;;1.07;;
4698;SDS011;33708;49.466;11.176;2023-01-13T01:44:01;9.27;;;1.10;;
4698;SDS011;33708;49.466;11.176;2023-01-13T01:46:52;8.57;;;1.00;;
4698;SDS011;33708;49.466;11.176;2023-01-13T01:49:21;8.67;;;1.33;;
4698;SDS011;33708;49.466;11.176;2023-01-13T01:51:58;7.90;;;0.97;;
4698;SDS011;33708;49.466;11.176;2023-01-13T01:54:27;7.37;;;1.03;;
4698;SDS011;33708;49.466;11.176;2023-01-13T01:57:32;9.57;;;1.10;;
4698;SDS011;33708;49.466;11.176;2023-01-13T02:00:10;8.10;;;0.97;;
4698;SDS011;33708;49.466;11.176;2023-01-13T02:02:36;9.00;;;0.90;;
4698;SDS011;33708;49.466;11.176;2023-01-13T02:05:03;8.40;;;1.00;;
4698;SDS011;33708;49.466;11.176;2023-01-13T02:07:30;9.30;;;1.30;;
4698;SDS011;33708;49.466;11.176;2023-01-13T02:09:57;10.27;;;1.33;;
4698;SDS011;33708;49.466;11.176;2023-01-13T02:12:26;11.73;;;1.40;;
4698;SDS011;33708;49.466;11.176;2023-01-13T02:15:06;7.07;;;1.00;;
4698;SDS011;33708;49.466;11.176;2023-01-13T02:17:50;9.97;;;1.10;;
4698;SDS011;33708;49.466;11.176;2023-01-13T02:24:21;9.53;;;1.33;;
4698;SDS011;33708;49.466;11.176;2023-01-13T02:30:06;8.40;;;1.00;;
4698;SDS011;33708;49.466;11.176;2023-01-13T02:33:02;8.67;;;1.07;;
4698;SDS011;33708;49.466;11.176;2023-01-13T02:38:49;9.30;;;1.40;;
4698;SDS011;33708;49.466;11.176;2023-01-13T02:41:25;7.50;;;0.97;;
4698;SDS011;33708;49.466;11.176;2023-01-13T02:44:14;7.73;;;0.87;;
4698;SDS011;33708;49.466;11.176;2023-01-13T02:46:56;6.60;;;0.80;;
4698;SDS011;33708;49.466;11.176;2023-01-13T02:49:37;9.47;;;1.20;;
4698;SDS011;33708;49.466;11.176;2023-01-13T02:52:12;7.63;;;1.00;;
4698;SDS011;33708;49.466;11.176;2023-01-13T02:54:43;9.90;;;1.53;;
4698;SDS011;33708;49.466;11.176;2023-01-13T02:57:12;8.13;;;1.00;;
4698;SDS011;33708;49.466;11.176;2023-01-13T02:59:41;8.10;;;1.13;;
4698;SDS011;33708;49.466;11.176;2023-01-13T03:02:07;9.03;;;1.27;;
4698;SDS011;33708;49.466;11.176;2023-01-13T03:20:36;6.97;;;1.00;;
4698;SDS011;33708;49.466;11.176;2023-01-13T03:25:50;7.73;;;0.80;;
4698;SDS011;33708;49.466;11.176;2023-01-13T03:28:26;9.37;;;1.20;;
4698;SDS011;33708;49.466;11.176;2023-01-13T03:30:59;8.00;;;0.93;;
4698;SDS011;33708;49.466;11.176;2023-01-13T03:33:33;8.03;;;1.00;;
4698;SDS011;33708;49.466;11.176;2023-01-13T03:36:23;7.47;;;0.90;;
4698;SDS011;33708;49.466;11.176;2023-01-13T03:38:52;8.10;;;1.10;;
4698;SDS011;33708;49.466;11.176;2023-01-13T03:41:24;9.57;;;1.50;;
4698;SDS011;33708;49.466;11.176;2023-01-13T03:43:59;8.73;;;1.10;;
4698;SDS011;33708;49.466;11.176;2023-01-13T03:50:06;8.40;;;1.20;;
4698;SDS011;33708;49.466;11.176;2023-01-13T03:52:36;7.70;;;1.00;;
4698;SDS011;33708;49.466;11.176;2023-01-13T03:57:52;6.80;;;0.80;;
4698;SDS011;33708;49.466;11.176;2023-01-13T04:00:29;6.87;;;0.90;;
4698;SDS011;33708;49.466;11.176;2023-01-13T04:03:04;7.80;;;0.90;;
4698;SDS011;33708;49.466;11.176;2023-01-13T04:05:34;7.53;;;0.80;;
4698;SDS011;33708;49.466;11.176;2023-01-13T04:10:37;7.40;;;1.30;;
4698;SDS011;33708;49.466;11.176;2023-01-13T04:13:11;7.87;;;0.93;;
4698;SDS011;33708;49.466;11.176;2023-01-13T04:15:44;10.00;;;1.03;;
4698;SDS011;33708;49.466;11.176;2023-01-13T04:20:39;6.93;;;1.00;;
4698;SDS011;33708;49.466;11.176;2023-01-13T04:23:07;9.53;;;1.00;;
4698;SDS011;33708;49.466;11.176;2023-01-13T04:25:33;7.50;;;1.07;;
4698;SDS011;33708;49.466;11.176;2023-01-13T04:27:59;8.00;;;1.03;;
4698;SDS011;33708;49.466;11.176;2023-01-13T04:30:25;8.20;;;1.20;;
4698;SDS011;33708;49.466;11.176;2023-01-13T04:32:51;7.40;;;0.93;;
4698;SDS011;33708;49.466;11.176;2023-01-13T04:35:16;6.90;;;0.80;;
4698;SDS011;33708;49.466;11.176;2023-01-13T04:37:42;8.13;;;1.00;;
4698;SDS011;33708;49.466;11.176;2023-01-13T04:40:07;8.90;;;1.17;;
4698;SDS011;33708;49.466;11.176;2023-01-13T04:42:33;8.37;;;1.00;;
4698;SDS011;33708;49.466;11.176;2023-01-13T04:44:59;9.07;;;1.27;;
4698;SDS011;33708;49.466;11.176;2023-01-13T04:47:25;7.93;;;1.00;;
4698;SDS011;33708;49.466;11.176;2023-01-13T04:49:50;7.87;;;1.00;;
4698;SDS011;33708;49.466;11.176;2023-01-13T04:52:16;7.77;;;1.07;;
4698;SDS011;33708;49.466;11.176;2023-01-13T04:54:41;8.00;;;1.00;;
4698;SDS011;33708;49.466;11.176;2023-01-13T04:57:07;6.77;;;0.97;;
4698;SDS011;33708;49.466;11.176;2023-01-13T04:59:32;7.37;;;1.20;;
4698;SDS011;33708;49.466;11.176;2023-01-13T05:01:58;7.43;;;0.93;;
4698;SDS011;33708;49.466;11.176;2023-01-13T05:04:24;8.50;;;1.20;;
4698;SDS011;33708;49.466;11.176;2023-01-13T05:06:49;11.03;;;1.10;;
4698;SDS011;33708;49.466;11.176;2023-01-13T05:09:15;7.07;;;0.90;;
4698;SDS011;33708;49.466;11.176;2023-01-13T05:11:40;6.80;;;0.83;;
4698;SDS011;33708;49.466;11.176;2023-01-13T05:14:25;8.00;;;0.90;;
4698;SDS011;33708;49.466;11.176;2023-01-13T05:17:09;8.40;;;0.90;;
4698;SDS011;33708;49.466;11.176;2023-01-13T05:19:43;8.93;;;1.30;;
4698;SDS011;33708;49.466;11.176;2023-01-13T05:22:09;8.27;;;1.00;;
4698;SDS011;33708;49.466;11.176;2023-01-13T05:24:57;10.60;;;1.10;;
4698;SDS011;33708;49.466;11.176;2023-01-13T05:27:42;8.30;;;0.97;;
4698;SDS011;33708;49.466;11.176;2023-01-13T05:30:07;8.50;;;1.00;;
4698;SDS011;33708;49.466;11.176;2023-01-13T05:32:34;6.90;;;1.00;;
4698;SDS011;33708;49.466;11.176;2023-01-13T05:34:59;7.03;;;0.90;;
4698;SDS011;33708;49.466;11.176;2023-01-13T05:37:25;6.93;;;0.97;;
4698;SDS011;33708;49.466;11.176;2023-01-13T05:39:54;10.97;;;1.10;;
4698;SDS011;33708;49.466;11.176;2023-01-13T05:42:38;10.40;;;1.30;;
4698;SDS011;33708;49.466;11.176;2023-01-13T05:45:22;8.40;;;0.90;;
4698;SDS011;33708;49.466;11.176;2023-01-13T05:47:51;7.80;;;0.93;;
4698;SDS011;33708;49.466;11.176;2023-01-13T05:50:17;8.97;;;1.30;;
4698;SDS011;33708;49.466;11.176;2023-01-13T05:52:43;8.27;;;1.13;;
4698;SDS011;33708;49.466;11.176;2023-01-13T05:55:09;7.33;;;1.17;;
4698;SDS011;33708;49.466;11.176;2023-01-13T05:57:35;7.40;;;0.93;;
4698;SDS011;33708;49.466;11.176;2023-01-13T06:00:01;6.47;;;0.70;;
4698;SDS011;33708;49.466;11.176;2023-01-13T06:02:28;7.53;;;1.23;;
4698;SDS011;33708;49.466;11.176;2023-01-13T06:04:53;7.50;;;0.87;;
4698;SDS011;33708;49.466;11.176;2023-01-13T06:07:19;8.30;;;1.00;;
4698;SDS011;33708;49.466;11.176;2023-01-13T06:09:45;8.73;;;1.43;;
4698;SDS011;33708;49.466;11.176;2023-01-13T06:12:11;8.30;;;1.10;;
4698;SDS011;33708;49.466;11.176;2023-01-13T06:14:37;6.60;;;1.07;;
4698;SDS011;33708;49.466;11.176;2023-01-13T06:17:06;7.80;;;0.80;;
4698;SDS011;33708;49.466;11.176;2023-01-13T06:19:39;7.50;;;0.97;;
4698;SDS011;33708;49.466;11.176;2023-01-13T06:24:42;8.20;;;0.87;;
4698;SDS011;33708;49.466;11.176;2023-01-13T06:27:12;7.20;;;0.83;;
4698;SDS011;33708;49.466;11.176;2023-01-13T06:29:38;9.53;;;1.10;;
4698;SDS011;33708;49.466;11.176;2023-01-13T06:32:05;8.53;;;1.20;;
4698;SDS011;33708;49.466;11.176;2023-01-13T06:34:36;6.57;;;0.90;;
4698;SDS011;33708;49.466;11.176;2023-01-13T06:37:04;6.50;;;0.80;;
4698;SDS011;33708;49.466;11.176;2023-01-13T06:39:30;7.43;;;1.13;;
4698;SDS011;33708;49.466;11.176;2023-01-13T06:41:56;8.97;;;1.20;;
4698;SDS011;33708;49.466;11.176;2023-01-13T06:44:41;7.93;;;1.00;;
4698;SDS011;33708;49.466;11.176;2023-01-13T06:47:08;6.50;;;0.80;;
4698;SDS011;33708;49.466;11.176;2023-01-13T06:49:34;10.00;;;1.00;;
4698;SDS011;33708;49.466;11.176;2023-01-13T06:52:00;7.00;;;1.20;;
4698;SDS011;33708;49.466;11.176;2023-01-13T06:54:25;8.07;;;1.20;;
4698;SDS011;33708;49.466;11.176;2023-01-13T06:56:51;9.70;;;1.47;;
4698;SDS011;33708;49.466;11.176;2023-01-13T06:59:16;7.80;;;1.10;;
4698;SDS011;33708;49.466;11.176;2023-01-13T07:01:42;8.47;;;1.13;;
4698;SDS011;33708;49.466;11.176;2023-01-13T07:04:07;9.30;;;0.97;;
4698;SDS011;33708;49.466;11.176;2023-01-13T07:06:33;7.33;;;0.90;;
4698;SDS011;33708;49.466;11.176;2023-01-13T07:08:59;6.50;;;0.90;;
4698;SDS011;33708;49.466;11.176;2023-01-13T07:11:24;7.10;;;0.80;;
4698;SDS011;33708;49.466;11.176;2023-01-13T07:13:50;7.33;;;1.13;;
4698;SDS011;33708;49.466;11.176;2023-01-13T07:16:34;8.13;;;1.03;;
4698;SDS011;33708;49.466;11.176;2023-01-13T07:19:00;8.70;;;1.10;;
4698;SDS011;33708;49.466;11.176;2023-01-13T07:21:25;8.27;;;1.00;;
4698;SDS011;33708;49.466;11.176;2023-01-13T07:23:51;10.83;;;1.13;;
4698;SDS011;33708;49.466;11.176;2023-01-13T07:26:16;7.60;;;1.00;;
4698;SDS011;33708;49.466;11.176;2023-01-13T07:28:42;7.13;;;1.00;;
4698;SDS011;33708;49.466;11.176;2023-01-13T07:31:14;9.23;;;1.20;;
4698;SDS011;33708;49.466;11.176;2023-01-13T07:33:42;9.50;;;1.40;;
4698;SDS011;33708;49.466;11.176;2023-01-13T07:36:07;9.60;;;1.40;;
4698;SDS011;33708;49.466;11.176;2023-01-13T07:38:33;7.87;;;1.27;;
4698;SDS011;33708;49.466;11.176;2023-01-13T07:40:59;7.83;;;1.20;;
4698;SDS011;33708;49.466;11.176;2023-01-13T07:43:44;8.17;;;1.20;;
4698;SDS011;33708;49.466;11.176;2023-01-13T07:46:10;10.70;;;1.53;;
4698;SDS011;33708;49.466;11.176;2023-01-13T07:48:35;7.87;;;1.37;;
4698;SDS011;33708;49.466;11.176;2023-01-13T07:51:05;10.60;;;1.60;;
4698;SDS011;33708;49.466;11.176;2023-01-13T07:53:32;9.70;;;1.40;;
4698;SDS011;33708;49.466;11.176;2023-01-13T07:55:59;7.90;;;1.50;;
4698;SDS011;33708;49.466;11.176;2023-01-13T07:58:26;10.77;;;1.37;;
4698;SDS011;33708;49.466;11.176;2023-01-13T08:00:52;8.30;;;1.40;;
4698;SDS011;33708;49.466;11.176;2023-01-13T08:03:18;7.70;;;1.03;;
4698;SDS011;33708;49.466;11.176;2023-01-13T08:05:44;9.63;;;1.53;;
4698;SDS011;33708;49.466;11.176;2023-01-13T08:08:10;7.23;;;1.30;;
4698;SDS011;33708;49.466;11.176;2023-01-13T08:10:36;7.30;;;1.03;;
4698;SDS011;33708;49.466;11.176;2023-01-13T08:13:11;8.03;;;1.43;;
4698;SDS011;33708;49.466;11.176;2023-01-13T08:15:43;9.43;;;1.37;;
4698;SDS011;33708;49.466;11.176;2023-01-13T08:18:10;7.90;;;1.37;;
4698;SDS011;33708;49.466;11.176;2023-01-13T08:20:36;7.10;;;1.10;;
4698;SDS011;33708;49.466;11.176;2023-01-13T08:23:02;7.07;;;1.10;;
4698;SDS011;33708;49.466;11.176;2023-01-13T08:25:28;8.00;;;0.90;;
4698;SDS011;33708;49.466;11.176;2023-01-13T08:27:55;8.83;;;1.10;;
4698;SDS011;33708;49.466;11.176;2023-01-13T08:30:21;8.43;;;1.17;;
4698;SDS011;33708;49.466;11.176;2023-01-13T08:32:47;8.90;;;1.50;;
4698;SDS011;33708;49.466;11.176;2023-01-13T08:35:14;9.10;;;1.20;;
4698;SDS011;33708;49.466;11.176;2023-01-13T08:37:41;7.80;;;1.03;;
4698;SDS011;33708;49.466;11.176;2023-01-13T08:40:07;8.50;;;1.43;;
4698;SDS011;33708;49.466;11.176;2023-01-13T08:42:34;9.17;;;1.63;;
4698;SDS011;33708;49.466;11.176;2023-01-13T08:45:00;6.47;;;1.00;;
4698;SDS011;33708;49.466;11.176;2023-01-13T08:47:26;7.10;;;1.17;;
4698;SDS011;33708;49.466;11.176;2023-01-13T08:49:52;9.83;;;1.20;;
4698;SDS011;33708;49.466;11.176;2023-01-13T08:52:18;6.83;;;1.40;;
4698;SDS011;33708;49.466;11.176;2023-01-13T08:54:45;8.20;;;1.20;;
4698;SDS011;33708;49.466;11.176;2023-01-13T08:57:10;8.00;;;1.17;;
4698;SDS011;33708;49.466;11.176;2023-01-13T08:59:36;8.83;;;1.07;;
4698;SDS011;33708;49.466;11.176;2023-01-13T09:02:02;6.47;;;0.90;;
4698;SDS011;33708;49.466;11.176;2023-01-13T09:04:33;8.33;;;1.00;;
4698;SDS011;33708;49.466;11.176;2023-01-13T09:06:59;8.63;;;1.13;;
4698;SDS011;33708;49.466;11.176;2023-01-13T09:09:26;8.37;;;1.47;;
4698;SDS011;33708;49.466;11.176;2023-01-13T09:11:52;7.73;;;1.00;;
4698;SDS011;33708;49.466;11.176;2023-01-13T09:14:37;7.30;;;0.90;;
4698;SDS011;33708;49.466;11.176;2023-01-13T09:17:03;8.00;;;1.03;;
4698;SDS011;33708;49.466;11.176;2023-01-13T09:19:29;6.80;;;1.00;;
4698;SDS011;33708;49.466;11.176;2023-01-13T09:21:55;8.83;;;0.93;;
4698;SDS011;33708;49.466;11.176;2023-01-13T09:24:21;7.23;;;0.93;;
4698;SDS011;33708;49.466;11.176;2023-01-13T09:26:47;7.90;;;1.03;;
4698;SDS011;33708;49.466;11.176;2023-01-13T09:29:13;9.23;;;0.97;;
4698;SDS011;33708;49.466;11.176;2023-01-13T09:31:39;7.50;;;0.90;;
4698;SDS011;33708;49.466;11.176;2023-01-13T09:34:05;9.30;;;1.27;;
4698;SDS011;33708;49.466;11.176;2023-01-13T09:36:50;9.03;;;0.93;;
4698;SDS011;33708;49.466;11.176;2023-01-13T09:39:16;8.87;;;0.90;;
4698;SDS011;33708;49.466;11.176;2023-01-13T09:41:46;7.13;;;0.87;;
4698;SDS011;33708;49.466;11.176;2023-01-13T09:44:41;6.90;;;0.80;;
4698;SDS011;33708;49.466;11.176;2023-01-13T09:49:46;7.07;;;1.10;;
4698;SDS011;33708;49.466;11.176;2023-01-13T09:52:19;8.27;;;1.23;;
4698;SDS011;33708;49.466;11.176;2023-01-13T09:54:48;7.80;;;1.10;;
4698;SDS011;33708;49.466;11.176;2023-01-13T09:57:19;11.60;;;1.27;;
4698;SDS011;33708;49.466;11.176;2023-01-13T09:59:46;7.57;;;1.20;;
4698;SDS011;33708;49.466;11.176;2023-01-13T10:05:02;7.73;;;1.30;;
4698;SDS011;33708;49.466;11.176;2023-01-13T10:07:30;8.03;;;1.03;;
4698;SDS011;33708;49.466;11.176;2023-01-13T10:09:58;7.87;;;1.10;;
4698;SDS011;33708;49.466;11.176;2023-01-13T10:12:26;9.30;;;1.20;;
4698;SDS011;33708;49.466;11.176;2023-01-13T10:15:16;8.23;;;1.57;;
4698;SDS011;33708;49.466;11.176;2023-01-13T10:17:52;7.73;;;1.40;;
4698;SDS011;33708;49.466;11.176;2023-01-13T10:29:27;12.70;;;1.40;;
4698;SDS011;33708;49.466;11.176;2023-01-13T10:31:54;10.60;;;1.30;;
4698;SDS011;33708;49.466;11.176;2023-01-13T10:34:21;7.80;;;1.00;;
4698;SDS011;33708;49.466;11.176;2023-01-13T10:36:53;7.20;;;0.87;;
4698;SDS011;33708;49.466;11.176;2023-01-13T10:39:39;7.57;;;1.10;;
4698;SDS011;33708;49.466;11.176;2023-01-13T10:42:11;8.13;;;0.93;;
4698;SDS011;33708;49.466;11.176;2023-01-13T10:44:45;7.50;;;1.00;;
4698;SDS011;33708;49.466;11.176;2023-01-13T10:47:19;7.70;;;1.03;;
4698;SDS011;33708;49.466;11.176;2023-01-13T10:52:38;7.50;;;1.40;;
4698;SDS011;33708;49.466;11.176;2023-01-13T10:57:54;9.60;;;1.60;;
4698;SDS011;33708;49.466;11.176;2023-01-13T11:00:30;7.73;;;1.20;;
4698;SDS011;33708;49.466;11.176;2023-01-13T11:03:04;9.83;;;1.20;;
4698;SDS011;33708;49.466;11.176;2023-01-13T11:05:51;8.13;;;1.20;;
4698;SDS011;33708;49.466;11.176;2023-01-13T11:08:26;7.43;;;1.10;;
4698;SDS011;33708;49.466;11.176;2023-01-13T11:11:21;7.43;;;1.20;;
4698;SDS011;33708;49.466;11.176;2023-01-13T11:14:20;8.87;;;1.30;;
4698;SDS011;33708;49.466;11.176;2023-01-13T11:17:08;7.40;;;1.50;;
4698;SDS011;33708;49.466;11.176;2023-01-13T11:19:56;7.60;;;1.23;;
4698;SDS011;33708;49.466;11.176;2023-01-13T11:22:29;8.33;;;1.10;;
4698;SDS011;33708;49.466;11.176;2023-01-13T11:25:00;7.00;;;1.00;;
4698;SDS011;33708;49.466;11.176;2023-01-13T11:30:16;7.30;;;1.13;;
4698;SDS011;33708;49.466;11.176;2023-01-13T11:33:03;9.57;;;1.30;;
4698;SDS011;33708;49.466;11.176;2023-01-13T11:40:59;7.80;;;1.73;;
4698;SDS011;33708;49.466;11.176;2023-01-13T11:43:34;9.87;;;1.40;;
4698;SDS011;33708;49.466;11.176;2023-01-13T11:46:06;8.30;;;1.20;;
4698;SDS011;33708;49.466;11.176;2023-01-13T11:48:35;8.90;;;1.40;;
4698;SDS011;33708;49.466;11.176;2023-01-13T12:10:52;8.27;;;1.50;;
4698;SDS011;33708;49.466;11.176;2023-01-13T12:13:39;7.80;;;1.50;;
4698;SDS011;33708;49.466;11.176;2023-01-13T12:16:20;6.90;;;1.23;;
4698;SDS011;33708;49.466;11.176;2023-01-13T12:21:52;9.50;;;1.60;;
4698;SDS011;33708;49.466;11.176;2023-01-13T12:24:40;9.20;;;1.60;;
4698;SDS011;33708;49.466;11.176;2023-01-13T12:29:43;8.60;;;1.53;;
4698;SDS011;33708;49.466;11.176;2023-01-13T12:32:12;9.00;;;1.30;;
4698;SDS011;33708;49.466;11.176;2023-01-13T12:40:21;9.13;;;1.63;;
4698;SDS011;33708;49.466;11.176;2023-01-13T13:02:33;15.80;;;2.90;;
4698;SDS011;33708;49.466;11.176;2023-01-13T13:07:40;8.07;;;1.23;;
4698;SDS011;33708;49.466;11.176;2023-01-13T13:15:32;9.93;;;1.30;;
4698;SDS011;33708;49.466;11.176;2023-01-13T13:26:15;12.50;;;1.33;;
4698;SDS011;33708;49.466;11.176;2023-01-13T13:29:00;9.50;;;1.70;;
4698;SDS011;33708;49.466;11.176;2023-01-13T13:34:44;10.80;;;1.60;;
4698;SDS011;33708;49.466;11.176;2023-01-13T13:40:19;8.80;;;1.70;;
4698;SDS011;33708;49.466;11.176;2023-01-13T13:43:04;9.37;;;1.37;;
4698;SDS011;33708;49.466;11.176;2023-01-13T13:45:54;9.40;;;1.30;;
4698;SDS011;33708;49.466;11.176;2023-01-13T13:48:38;9.47;;;1.20;;
4698;SDS011;33708;49.466;11.176;2023-01-13T13:51:24;9.23;;;1.47;;
4698;SDS011;33708;49.466;11.176;2023-01-13T13:53:55;9.40;;;1.27;;
4698;SDS011;33708;49.466;11.176;2023-01-13T13:56:23;10.93;;;1.53;;
4698;SDS011;33708;49.466;11.176;2023-01-13T13:58:51;8.40;;;1.60;;
4698;SDS011;33708;49.466;11.176;2023-01-13T14:01:28;11.40;;;1.60;;
4698;SDS011;33708;49.466;11.176;2023-01-13T14:04:18;14.93;;;2.20;;
4698;SDS011;33708;49.466;11.176;2023-01-13T14:06:53;12.93;;;1.70;;
4698;SDS011;33708;49.466;11.176;2023-01-13T14:09:37;9.90;;;1.90;;
4698;SDS011;33708;49.466;11.176;2023-01-13T14:12:19;13.30;;;1.80;;
4698;SDS011;33708;49.466;11.176;2023-01-13T14:14:50;11.13;;;1.80;;
4698;SDS011;33708;49.466;11.176;2023-01-13T14:19:54;15.07;;;1.70;;
4698;SDS011;33708;49.466;11.176;2023-01-13T14:22:24;11.57;;;1.97;;
4698;SDS011;33708;49.466;11.176;2023-01-13T14:24:50;10.10;;;2.07;;
4698;SDS011;33708;49.466;11.176;2023-01-13T14:27:21;8.67;;;2.03;;
4698;SDS011;33708;49.466;11.176;2023-01-13T14:29:48;14.50;;;2.40;;
4698;SDS011;33708;49.466;11.176;2023-01-13T14:32:17;15.03;;;2.00;;
4698;SDS011;33708;49.466;11.176;2023-01-13T14:34:45;11.37;;;2.17;;
4698;SDS011;33708;49.466;11.176;2023-01-13T14:37:53;13.13;;;2.07;;
4698;SDS011;33708;49.466;11.176;2023-01-13T14:40:00;13.43;;;1.83;;
4698;SDS011;33708;49.466;11.176;2023-01-13T14:42:26;15.30;;;2.57;;
4698;SDS011;33708;49.466;11.176;2023-01-13T14:44:53;10.40;;;1.97;;
4698;SDS011;33708;49.466;11.176;2023-01-13T14:47:21;10.73;;;2.03;;
4698;SDS011;33708;49.466;11.176;2023-01-13T14:49:53;13.70;;;2.13;;
4698;SDS011;33708;49.466;11.176;2023-01-13T14:52:25;13.20;;;1.93;;
4698;SDS011;33708;49.466;11.176;2023-01-13T14:57:34;13.73;;;1.93;;
4698;SDS011;33708;49.466;11.176;2023-01-13T15:02:45;10.33;;;1.70;;
4698;SDS011;33708;49.466;11.176;2023-01-13T15:10:24;13.10;;;2.37;;
4698;SDS011;33708;49.466;11.176;2023-01-13T15:12:56;19.30;;;3.53;;
4698;SDS011;33708;49.466;11.176;2023-01-13T15:17:57;11.83;;;2.03;;
4698;SDS011;33708;49.466;11.176;2023-01-13T15:20:24;18.40;;;2.07;;
4698;SDS011;33708;49.466;11.176;2023-01-13T15:22:51;17.67;;;2.73;;
4698;SDS011;33708;49.466;11.176;2023-01-13T15:25:18;14.50;;;2.50;;
4698;SDS011;33708;49.466;11.176;2023-01-13T15:27:45;18.27;;;2.53;;
4698;SDS011;33708;49.466;11.176;2023-01-13T15:30:21;10.00;;;1.93;;
4698;SDS011;33708;49.466;11.176;2023-01-13T15:32:54;14.37;;;2.27;;
4698;SDS011;33708;49.466;11.176;2023-01-13T15:35:22;9.70;;;2.17;;
4698;SDS011;33708;49.466;11.176;2023-01-13T15:37:49;14.57;;;2.30;;
4698;SDS011;33708;49.466;11.176;2023-01-13T15:40:19;8.20;;;1.60;;
4698;SDS011;33708;49.466;11.176;2023-01-13T15:42:45;11.03;;;2.23;;
4698;SDS011;33708;49.466;11.176;2023-01-13T15:45:30;13.23;;;1.60;;
4698;SDS011;33708;49.466;11.176;2023-01-13T15:48:16;12.30;;;2.20;;
4698;SDS011;33708;49.466;11.176;2023-01-13T15:50:44;13.53;;;2.63;;
4698;SDS011;33708;49.466;11.176;2023-01-13T15:53:10;13.03;;;2.20;;
4698;SDS011;33708;49.466;11.176;2023-01-13T15:55:38;14.23;;;2.10;;
4698;SDS011;33708;49.466;11.176;2023-01-13T15:58:05;10.70;;;2.10;;
4698;SDS011;33708;49.466;11.176;2023-01-13T16:00:31;12.10;;;1.70;;
4698;SDS011;33708;49.466;11.176;2023-01-13T16:02:57;17.53;;;1.83;;
4698;SDS011;33708;49.466;11.176;2023-01-13T16:05:23;13.07;;;2.00;;
4698;SDS011;33708;49.466;11.176;2023-01-13T16:07:49;16.60;;;2.27;;
4698;SDS011;33708;49.466;11.176;2023-01-13T16:10:20;20.30;;;2.47;;
4698;SDS011;33708;49.466;11.176;2023-01-13T16:12:47;15.53;;;3.00;;
4698;SDS011;33708;49.466;11.176;2023-01-13T16:15:13;13.70;;;1.90;;
4698;SDS011;33708;49.466;11.176;2023-01-13T16:17:41;12.83;;;2.30;;
4698;SDS011;33708;49.466;11.176;2023-01-13T16:20:12;17.50;;;3.50;;
4698;SDS011;33708;49.466;11.176;2023-01-13T16:22:39;23.90;;;7.50;;
4698;SDS011;33708;49.466;11.176;2023-01-13T16:25:04;12.67;;;2.60;;
4698;SDS011;33708;49.466;11.176;2023-01-13T16:27:31;11.60;;;2.40;;
4698;SDS011;33708;49.466;11.176;2023-01-13T16:29:56;25.33;;;4.40;;
4698;SDS011;33708;49.466;11.176;2023-01-13T16:32:22;16.10;;;3.20;;
4698;SDS011;33708;49.466;11.176;2023-01-13T16:34:48;17.20;;;2.30;;
4698;SDS011;33708;49.466;11.176;2023-01-13T16:37:21;21.43;;;3.27;;
4698;SDS011;33708;49.466;11.176;2023-01-13T16:39:49;17.50;;;2.43;;
4698;SDS011;33708;49.466;11.176;2023-01-13T16:42:15;20.17;;;3.20;;
4698;SDS011;33708;49.466;11.176;2023-01-13T16:44:40;15.20;;;2.57;;
4698;SDS011;33708;49.466;11.176;2023-01-13T16:47:10;19.73;;;2.63;;
4698;SDS011;33708;49.466;11.176;2023-01-13T16:49:40;16.00;;;3.30;;
4698;SDS011;33708;49.466;11.176;2023-01-13T16:52:06;17.23;;;3.50;;
4698;SDS011;33708;49.466;11.176;2023-01-13T16:54:32;10.77;;;2.50;;
4698;SDS011;33708;49.466;11.176;2023-01-13T16:56:58;13.93;;;2.53;;
4698;SDS011;33708;49.466;11.176;2023-01-13T16:59:23;12.40;;;1.83;;
4698;SDS011;33708;49.466;11.176;2023-01-13T17:01:49;11.90;;;1.97;;
4698;SDS011;33708;49.466;11.176;2023-01-13T17:04:16;13.60;;;3.17;;
4698;SDS011;33708;49.466;11.176;2023-01-13T17:09:28;13.60;;;2.67;;
4698;SDS011;33708;49.466;11.176;2023-01-13T17:11:55;16.27;;;2.20;;
4698;SDS011;33708;49.466;11.176;2023-01-13T17:14:21;17.43;;;2.23;;
4698;SDS011;33708;49.466;11.176;2023-01-13T17:16:48;10.07;;;1.80;;
4698;SDS011;33708;49.466;11.176;2023-01-13T17:19:15;15.27;;;2.63;;
4698;SDS011;33708;49.466;11.176;2023-01-13T17:21:41;14.20;;;2.70;;
4698;SDS011;33708;49.466;11.176;2023-01-13T17:24:07;16.67;;;2.47;;
4698;SDS011;33708;49.466;11.176;2023-01-13T17:26:41;14.33;;;2.47;;
4698;SDS011;33708;49.466;11.176;2023-01-13T17:29:12;15.70;;;2.27;;
4698;SDS011;33708;49.466;11.176;2023-01-13T17:31:40;13.27;;;2.30;;
4698;SDS011;33708;49.466;11.176;2023-01-13T17:34:09;16.03;;;2.37;;
4698;SDS011;33708;49.466;11.176;2023-01-13T17:36:36;12.50;;;2.63;;
4698;SDS011;33708;49.466;11.176;2023-01-13T17:39:02;17.87;;;3.00;;
4698;SDS011;33708;49.466;11.176;2023-01-13T17:41:28;13.33;;;2.60;;
4698;SDS011;33708;49.466;11.176;2023-01-13T17:43:54;20.60;;;3.13;;